createdAt,value
2018-12-21T00:03:08.526Z,3.616638
2018-12-21T00:06:41.022Z,3.596497
2018-12-21T00:10:13.132Z,3.556213
2018-12-21T00:13:44.424Z,3.546143
2018-12-21T00:17:17.299Z,3.475647
2018-12-21T00:20:52.919Z,3.405151
2018-12-21T00:24:23.074Z,3.374939
2018-12-21T00:27:54.469Z,3.415222
2018-12-21T00:31:29.124Z,3.445435
2018-12-21T00:34:59.794Z,3.455505
2018-12-21T00:38:31.504Z,3.485718
2018-12-21T00:42:04.244Z,3.505859
2018-12-21T00:45:38.238Z,3.51593
2018-12-21T00:49:09.350Z,3.51593
2018-12-21T00:52:40.565Z,3.546143
2018-12-21T00:56:14.682Z,3.556213
2018-12-21T00:59:47.864Z,3.556213
2018-12-21T01:03:18.431Z,3.626709
2018-12-21T01:06:52.882Z,3.63678
2018-12-21T01:10:27.690Z,3.656921
2018-12-21T01:14:01.820Z,3.666992
2018-12-21T01:17:32.566Z,3.697205
2018-12-21T01:21:05.517Z,3.727417
2018-12-21T01:24:39.961Z,3.717346
2018-12-21T01:28:12.614Z,3.697205
2018-12-21T01:31:45.245Z,3.666992
2018-12-21T01:35:17.844Z,3.666992
2018-12-21T01:38:45.749Z,3.626709
2018-12-21T01:42:13.635Z,3.556213
2018-12-21T01:45:41.556Z,3.455505
2018-12-21T01:49:09.441Z,3.374939
2018-12-21T01:52:37.489Z,3.364868
2018-12-21T01:56:05.352Z,3.374939
2018-12-21T01:59:33.242Z,3.435364
2018-12-21T02:03:01.142Z,3.455505
2018-12-21T02:06:29.013Z,3.485718
2018-12-21T02:09:56.910Z,3.475647
2018-12-21T02:13:24.778Z,3.51593
2018-12-21T02:16:52.645Z,3.51593
2018-12-21T02:20:20.528Z,3.485718
2018-12-21T02:23:48.413Z,3.505859
2018-12-21T02:27:16.286Z,3.475647
2018-12-21T02:30:44.163Z,3.505859
2018-12-21T02:34:12.049Z,3.455505
2018-12-21T02:37:39.917Z,3.435364
2018-12-21T02:41:07.800Z,3.445435
2018-12-21T02:44:35.682Z,3.445435
2018-12-21T02:48:04.539Z,3.415222
2018-12-21T02:51:32.422Z,3.374939
2018-12-21T02:55:00.305Z,3.374939
2018-12-21T02:58:28.202Z,3.374939
2018-12-21T03:01:57.057Z,3.374939
2018-12-21T03:05:24.939Z,3.415222
2018-12-21T03:08:52.826Z,3.445435
2018-12-21T03:12:20.695Z,3.435364
2018-12-21T03:15:48.579Z,3.364868
2018-12-21T03:19:16.462Z,3.334656
2018-12-21T03:22:44.327Z,3.354797
2018-12-21T03:26:12.206Z,3.364868
2018-12-21T03:29:40.088Z,3.374939
2018-12-21T03:33:08.949Z,3.435364
2018-12-21T03:36:36.937Z,3.435364
2018-12-21T03:40:04.824Z,3.475647
2018-12-21T03:43:32.688Z,3.505859
2018-12-21T03:47:00.574Z,3.51593
2018-12-21T03:50:28.458Z,3.546143
2018-12-21T03:53:56.323Z,3.51593
2018-12-21T03:57:24.207Z,3.485718
2018-12-21T04:00:53.082Z,3.415222
2018-12-21T04:04:20.955Z,3.334656
2018-12-21T04:07:48.826Z,3.304443
2018-12-21T04:11:16.710Z,3.254089
2018-12-21T04:14:44.586Z,3.26416
2018-12-21T04:18:12.459Z,3.223877
2018-12-21T04:21:40.347Z,3.153381
2018-12-21T04:25:08.239Z,3.113098
2018-12-21T04:28:36.093Z,3.143311
2018-12-21T04:32:04.978Z,3.173523
2018-12-21T04:35:32.870Z,3.223877
2018-12-21T04:39:00.881Z,3.26416
2018-12-21T04:42:28.765Z,3.354797
2018-12-21T04:45:56.647Z,3.405151
2018-12-21T04:49:24.528Z,3.415222
2018-12-21T04:52:52.393Z,3.435364
2018-12-21T04:56:20.276Z,3.435364
2018-12-21T04:59:48.159Z,3.445435
2018-12-21T05:03:16.022Z,3.475647
2018-12-21T05:06:43.908Z,3.505859
2018-12-21T05:10:11.794Z,3.546143
2018-12-21T05:13:39.672Z,3.596497
2018-12-21T05:17:07.532Z,3.63678
2018-12-21T05:20:35.418Z,3.666992
2018-12-21T05:24:03.280Z,3.666992
2018-12-21T05:27:31.159Z,3.697205
2018-12-21T05:30:59.044Z,3.717346
2018-12-21T05:34:26.914Z,3.737488
2018-12-21T05:37:55.784Z,3.777771
2018-12-21T05:41:23.667Z,3.797913
2018-12-21T05:44:51.544Z,3.818054
2018-12-21T05:48:20.413Z,3.818054
2018-12-21T05:51:48.300Z,3.807983
2018-12-21T05:55:16.164Z,3.838196
2018-12-21T05:58:44.047Z,3.848267
2018-12-21T06:02:11.927Z,3.818054
2018-12-21T06:05:41.037Z,3.818054
2018-12-21T06:09:08.903Z,3.818054
2018-12-21T06:12:37.790Z,3.838196
2018-12-21T06:16:05.674Z,3.848267
2018-12-21T06:19:33.640Z,3.868408
2018-12-21T06:23:09.210Z,3.868408
2018-12-21T06:26:33.376Z,3.908691
2018-12-21T06:30:02.418Z,3.918762
2018-12-21T06:33:30.290Z,3.908691
2018-12-21T06:36:59.163Z,3.918762
2018-12-21T06:40:28.048Z,3.898621
2018-12-21T06:43:56.906Z,3.838196
2018-12-21T06:47:24.788Z,3.737488
2018-12-21T06:50:53.668Z,3.697205
2018-12-21T06:54:21.541Z,3.687134
2018-12-21T06:57:49.425Z,3.666992
2018-12-21T07:01:18.306Z,3.687134
2018-12-21T07:04:46.172Z,3.697205
2018-12-21T07:08:14.051Z,3.727417
2018-12-21T07:11:41.926Z,3.777771
2018-12-21T07:15:09.795Z,3.797913
2018-12-21T07:18:37.682Z,3.807983
2018-12-21T07:22:05.585Z,3.737488
2018-12-21T07:25:33.467Z,3.687134
2018-12-21T07:29:01.332Z,3.666992
2018-12-21T07:32:29.210Z,3.697205
2018-12-21T07:35:57.092Z,3.727417
2018-12-21T07:39:30.294Z,3.737488
2018-12-21T07:42:58.782Z,3.777771
2018-12-21T07:46:26.716Z,3.807983
2018-12-21T07:49:54.603Z,3.818054
2018-12-21T07:53:22.484Z,3.868408
2018-12-21T07:56:53.337Z,3.878479
2018-12-21T08:00:21.233Z,3.918762
2018-12-21T08:03:49.101Z,3.918762
2018-12-21T08:07:16.986Z,3.959045
2018-12-21T08:10:44.878Z,3.989258
2018-12-21T08:14:12.743Z,4.01947
2018-12-21T08:17:40.634Z,4.059753
2018-12-21T08:21:08.510Z,4.100037
2018-12-21T08:24:36.408Z,4.120178
2018-12-21T08:28:04.260Z,4.160461
2018-12-21T08:31:32.162Z,4.180603
2018-12-21T08:35:00.049Z,4.210815
2018-12-21T08:38:27.919Z,4.241028
2018-12-21T08:41:55.815Z,4.301453
2018-12-21T08:45:23.925Z,4.341736
2018-12-21T08:48:52.872Z,4.382019
2018-12-21T08:52:20.699Z,4.422302
2018-12-21T08:55:48.666Z,4.482727
2018-12-21T08:59:16.535Z,4.492798
2018-12-21T09:02:44.422Z,4.543152
2018-12-21T09:06:18.358Z,4.543152
2018-12-21T09:09:43.161Z,4.593506
2018-12-21T09:13:11.043Z,4.613647
2018-12-21T09:16:38.928Z,4.664001
2018-12-21T09:20:06.832Z,4.754639
2018-12-21T09:23:35.717Z,4.794922
2018-12-21T09:27:03.854Z,4.855347
2018-12-21T09:30:31.747Z,4.845276
2018-12-21T09:33:59.654Z,4.825134
2018-12-21T09:37:27.553Z,4.845276
2018-12-21T09:40:55.435Z,4.885559
2018-12-21T09:44:23.310Z,4.956055
2018-12-21T09:47:51.219Z,4.976196
2018-12-21T09:51:19.100Z,4.996338
2018-12-21T09:54:47.008Z,4.996338
2018-12-21T09:58:14.889Z,5.036621
2018-12-21T10:01:42.778Z,5.107117
2018-12-21T10:05:10.641Z,5.137329
2018-12-21T10:08:39.513Z,5.117188
2018-12-21T10:12:07.396Z,5.1474
2018-12-21T10:15:35.270Z,5.187683
2018-12-21T10:19:03.159Z,5.217896
2018-12-21T10:22:31.038Z,5.248108
2018-12-21T10:25:58.904Z,5.298462
2018-12-21T10:29:26.791Z,5.298462
2018-12-21T10:32:54.669Z,5.338745
2018-12-21T10:36:22.537Z,5.389099
2018-12-21T10:39:50.423Z,5.39917
2018-12-21T10:43:18.305Z,5.479736
2018-12-21T10:46:46.177Z,5.590515
2018-12-21T10:50:15.049Z,5.590515
2018-12-21T10:53:46.491Z,5.620728
2018-12-21T10:57:12.781Z,5.661011
2018-12-21T11:00:40.662Z,5.721436
2018-12-21T11:04:08.566Z,5.802002
2018-12-21T11:07:36.433Z,5.852356
2018-12-21T11:11:04.438Z,5.872498
2018-12-21T11:14:33.352Z,5.842285
2018-12-21T11:18:01.239Z,5.872498
2018-12-21T11:21:29.116Z,5.802002
2018-12-21T11:24:57.020Z,5.791931
2018-12-21T11:28:25.431Z,5.751648
2018-12-21T11:31:52.770Z,5.731506
2018-12-21T11:35:21.021Z,5.721436
2018-12-21T11:38:49.346Z,5.691223
2018-12-21T11:42:17.528Z,5.691223
2018-12-21T11:45:45.794Z,5.661011
2018-12-21T11:49:14.064Z,5.65094
2018-12-21T11:52:42.370Z,5.620728
2018-12-21T11:56:10.605Z,5.590515
2018-12-21T11:59:44.784Z,5.580444
2018-12-21T12:03:10.691Z,5.580444
2018-12-21T12:06:38.555Z,5.570374
2018-12-21T12:10:07.441Z,5.610657
2018-12-21T12:13:35.322Z,5.620728
2018-12-21T12:17:03.187Z,5.620728
2018-12-21T12:20:31.071Z,5.620728
2018-12-21T12:23:58.992Z,5.620728
2018-12-21T12:27:26.883Z,5.610657
2018-12-21T12:30:54.747Z,5.620728
2018-12-21T12:34:22.641Z,5.661011
2018-12-21T12:37:50.616Z,5.701294
2018-12-21T12:41:18.482Z,5.731506
2018-12-21T12:44:48.045Z,5.731506
2018-12-21T12:48:15.932Z,5.751648
2018-12-21T12:51:43.866Z,5.731506
2018-12-21T12:55:11.733Z,5.721436
2018-12-21T12:58:40.608Z,5.721436
2018-12-21T13:02:08.489Z,5.721436
2018-12-21T13:05:36.361Z,5.731506
2018-12-21T13:09:04.345Z,5.751648
2018-12-21T13:12:32.304Z,5.751648
2018-12-21T13:16:00.268Z,5.761719
2018-12-21T13:19:28.162Z,5.77179
2018-12-21T13:22:56.117Z,5.77179
2018-12-21T13:26:24.371Z,5.761719
2018-12-21T13:29:52.696Z,5.751648
2018-12-21T13:33:22.086Z,5.731506
2018-12-21T13:36:50.431Z,5.731506
2018-12-21T13:40:18.723Z,5.731506
2018-12-21T13:43:47.134Z,5.731506
2018-12-21T13:47:16.320Z,5.731506
2018-12-21T13:50:44.795Z,5.731506
2018-12-21T13:54:13.041Z,5.701294
2018-12-21T13:57:41.396Z,5.661011
2018-12-21T14:01:09.746Z,5.65094
2018-12-21T14:04:38.013Z,5.610657
2018-12-21T14:08:06.385Z,5.590515
2018-12-21T14:11:34.783Z,5.580444
2018-12-21T14:15:03.158Z,5.540161
2018-12-21T14:18:31.519Z,5.479736
2018-12-21T14:21:59.908Z,5.409241
2018-12-21T14:25:28.919Z,5.368958
2018-12-21T14:28:58.659Z,5.358887
2018-12-21T14:32:27.030Z,5.328674
2018-12-21T14:35:55.376Z,5.338745
2018-12-21T14:39:23.845Z,5.318604
2018-12-21T14:42:52.260Z,5.288391
2018-12-21T14:46:20.606Z,5.288391
2018-12-21T14:49:48.970Z,5.26825
2018-12-21T14:53:16.851Z,5.248108
2018-12-21T14:56:44.724Z,5.26825
2018-12-21T15:00:12.620Z,5.248108
2018-12-21T15:03:40.504Z,5.26825
2018-12-21T15:07:09.380Z,5.238037
2018-12-21T15:10:37.412Z,5.207825
2018-12-21T15:14:05.196Z,5.187683
2018-12-21T15:17:33.074Z,5.157471
2018-12-21T15:21:00.943Z,5.157471
2018-12-21T15:24:28.825Z,5.1474
2018-12-21T15:27:57.700Z,5.137329
2018-12-21T15:31:25.565Z,5.137329
2018-12-21T15:34:53.455Z,5.137329
2018-12-21T15:38:21.335Z,5.137329
2018-12-21T15:41:49.208Z,5.137329
2018-12-21T15:45:17.080Z,5.107117
2018-12-21T15:48:44.976Z,5.056763
2018-12-21T15:52:12.858Z,5.036621
2018-12-21T15:55:40.725Z,5.02655
2018-12-21T15:59:10.583Z,5.02655
2018-12-21T16:02:38.465Z,5.006409
2018-12-21T16:06:06.332Z,5.006409
2018-12-21T16:09:34.224Z,5.006409
2018-12-21T16:13:02.105Z,4.996338
2018-12-21T16:16:29.996Z,4.976196
2018-12-21T16:19:57.860Z,4.976196
2018-12-21T16:23:25.768Z,4.996338
2018-12-21T16:26:53.656Z,4.996338
2018-12-21T16:30:21.521Z,4.996338
2018-12-21T16:33:49.401Z,4.996338
2018-12-21T16:37:17.281Z,4.996338
2018-12-21T16:40:46.149Z,4.976196
2018-12-21T16:44:14.038Z,4.996338
2018-12-21T16:47:42.012Z,4.996338
2018-12-21T16:51:09.895Z,4.976196
2018-12-21T16:54:37.851Z,4.966125
2018-12-21T16:58:05.739Z,4.976196
2018-12-21T17:01:33.597Z,4.966125
2018-12-21T17:05:01.493Z,4.966125
2018-12-21T17:08:29.383Z,4.966125
2018-12-21T17:11:57.256Z,4.956055
2018-12-21T17:15:25.136Z,4.966125
2018-12-21T17:18:54.022Z,4.956055
2018-12-21T17:22:21.903Z,4.976196
2018-12-21T17:25:50.791Z,4.966125
2018-12-21T17:29:18.660Z,4.976196
2018-12-21T17:32:46.546Z,4.976196
2018-12-21T17:36:15.430Z,4.966125
2018-12-21T17:39:43.296Z,4.966125
2018-12-21T17:43:11.181Z,4.966125
2018-12-21T17:46:39.066Z,4.956055
2018-12-21T17:50:06.983Z,4.956055
2018-12-21T17:53:34.863Z,4.976196
2018-12-21T17:57:02.750Z,4.976196
2018-12-21T18:00:30.627Z,4.996338
2018-12-21T18:03:58.513Z,4.996338
2018-12-21T18:07:26.395Z,4.976196
2018-12-21T18:10:54.278Z,4.976196
2018-12-21T18:14:24.780Z,4.976196
2018-12-21T18:17:52.673Z,4.976196
2018-12-21T18:21:24.021Z,4.976196
2018-12-21T18:24:52.885Z,4.996338
2018-12-21T18:28:21.755Z,4.996338
2018-12-21T18:31:49.659Z,4.996338
2018-12-21T18:35:19.521Z,4.976196
2018-12-21T18:38:46.406Z,4.996338
2018-12-21T18:42:14.285Z,4.976196
2018-12-21T18:45:42.149Z,4.966125
2018-12-21T18:49:10.048Z,4.996338
2018-12-21T18:52:37.935Z,4.976196
2018-12-21T18:56:05.942Z,4.966125
2018-12-21T18:59:33.813Z,4.976196
2018-12-21T19:03:01.701Z,4.966125
2018-12-21T19:06:29.592Z,4.956055
2018-12-21T19:09:57.535Z,4.956055
2018-12-21T19:13:26.422Z,4.935913
2018-12-21T19:16:54.371Z,4.935913
2018-12-21T19:20:22.454Z,4.935913
2018-12-21T19:23:50.676Z,4.935913
2018-12-21T19:27:18.759Z,4.925842
2018-12-21T19:30:46.674Z,4.925842
2018-12-21T19:34:15.582Z,4.925842
2018-12-21T19:37:43.477Z,4.925842
2018-12-21T19:41:11.935Z,4.885559
2018-12-21T19:44:39.240Z,4.885559
2018-12-21T19:48:07.789Z,4.875488
2018-12-21T19:51:35.676Z,4.845276
2018-12-21T19:55:04.195Z,4.794922
2018-12-21T19:58:32.109Z,4.77478
2018-12-21T20:01:59.978Z,4.724426
2018-12-21T20:05:27.841Z,4.724426
2018-12-21T20:08:55.730Z,4.714355
2018-12-21T20:12:23.616Z,4.724426
2018-12-21T20:15:51.504Z,4.744568
2018-12-21T20:19:19.369Z,4.724426
2018-12-21T20:22:47.249Z,4.744568
2018-12-21T20:26:15.165Z,4.754639
2018-12-21T20:29:43.042Z,4.77478
2018-12-21T20:33:10.923Z,4.77478
2018-12-21T20:36:38.810Z,4.77478
2018-12-21T20:40:06.674Z,4.754639
2018-12-21T20:43:34.561Z,4.754639
2018-12-21T20:47:02.439Z,4.754639
2018-12-21T20:50:30.306Z,4.724426
2018-12-21T20:53:58.221Z,4.724426
2018-12-21T20:57:26.109Z,4.724426
2018-12-21T21:00:53.979Z,4.744568
2018-12-21T21:04:21.866Z,4.744568
2018-12-21T21:07:49.750Z,4.744568
2018-12-21T21:11:24.134Z,4.744568
2018-12-21T21:14:49.473Z,4.744568
2018-12-21T21:18:17.363Z,4.754639
2018-12-21T21:21:46.233Z,4.754639
2018-12-21T21:25:14.113Z,4.77478
2018-12-21T21:28:41.998Z,4.77478
2018-12-21T21:32:09.868Z,4.754639
2018-12-21T21:35:37.755Z,4.754639
2018-12-21T21:39:05.636Z,4.77478
2018-12-21T21:42:33.512Z,4.77478
2018-12-21T21:46:01.420Z,4.77478
2018-12-21T21:49:29.306Z,4.784851
2018-12-21T21:52:57.302Z,4.77478
2018-12-21T21:56:25.203Z,4.794922
2018-12-21T21:59:53.087Z,4.794922
2018-12-21T22:03:22.081Z,4.794922
2018-12-21T22:06:50.025Z,4.794922
2018-12-21T22:10:17.929Z,4.784851
2018-12-21T22:13:46.844Z,4.794922
2018-12-21T22:17:14.721Z,4.815063
2018-12-21T22:20:42.630Z,4.825134
2018-12-21T22:24:11.516Z,4.825134
2018-12-21T22:27:47.672Z,4.855347
2018-12-21T22:31:12.912Z,4.875488
2018-12-21T22:34:40.794Z,4.875488
2018-12-21T22:38:09.656Z,4.885559
2018-12-21T22:41:37.554Z,4.875488
2018-12-21T22:45:05.715Z,4.885559
2018-12-21T22:48:33.604Z,4.905701
2018-12-21T22:52:02.460Z,4.905701
2018-12-21T22:55:31.334Z,4.905701
2018-12-21T22:59:00.204Z,4.925842
2018-12-21T23:02:28.073Z,4.885559
2018-12-21T23:05:55.956Z,4.855347
2018-12-21T23:09:23.838Z,4.855347
2018-12-21T23:12:52.700Z,4.815063
2018-12-21T23:16:20.581Z,4.815063
2018-12-21T23:19:48.467Z,4.825134
2018-12-21T23:23:16.339Z,4.875488
2018-12-21T23:26:45.210Z,4.925842
2018-12-21T23:30:13.095Z,4.966125
2018-12-21T23:33:40.992Z,4.976196
2018-12-21T23:37:08.872Z,5.02655
2018-12-21T23:40:36.766Z,5.056763
2018-12-21T23:44:04.631Z,5.086975
2018-12-21T23:47:33.510Z,5.157471
2018-12-21T23:51:01.392Z,5.238037
2018-12-21T23:54:30.254Z,5.318604
2018-12-21T23:57:58.137Z,5.368958
